createdAt,value
2022-10-11T00:01:37.835Z,3.15
2022-10-11T00:06:31.317Z,2.67
2022-10-11T00:11:25.227Z,3.00
2022-10-11T00:16:18.741Z,2.67
2022-10-11T00:21:14.452Z,2.63
2022-10-11T00:26:10.195Z,3.10
2022-10-11T00:31:07.336Z,2.72
2022-10-11T00:36:01.579Z,2.70
2022-10-11T00:40:56.084Z,3.05
2022-10-11T00:45:57.831Z,3.10
2022-10-11T00:50:51.926Z,2.80
2022-10-11T00:55:52.561Z,2.75
2022-10-11T01:00:46.356Z,2.75
2022-10-11T01:05:41.105Z,3.08
2022-10-11T01:10:34.898Z,2.65
2022-10-11T01:16:08.633Z,2.72
2022-10-11T01:21:19.636Z,3.00
2022-10-11T01:26:54.839Z,3.00
2022-10-11T01:32:04.375Z,3.10
2022-10-11T01:37:12.871Z,2.70
2022-10-11T01:42:10.616Z,3.05
2022-10-11T01:47:04.010Z,2.58
2022-10-11T01:52:00.432Z,2.60
2022-10-11T01:57:32.090Z,3.00
2022-10-11T02:02:27.417Z,3.08
2022-10-11T02:07:25.943Z,2.63
2022-10-11T02:12:28.917Z,2.75
2022-10-11T02:17:28.521Z,3.00
2022-10-11T02:22:29.204Z,3.03
2022-10-11T02:27:27.578Z,3.00
2022-10-11T02:32:23.288Z,2.75
2022-10-11T02:37:23.898Z,3.20
2022-10-11T02:42:27.705Z,2.67
2022-10-11T02:47:22.263Z,3.15
2022-10-11T02:52:15.833Z,3.40
2022-10-11T02:57:09.515Z,2.90
2022-10-11T03:02:03.380Z,2.92
2022-10-11T03:06:56.534Z,2.78
2022-10-11T03:11:50.254Z,3.35
2022-10-11T03:16:43.990Z,3.17
2022-10-11T03:21:38.059Z,2.83
2022-10-11T03:26:31.596Z,3.10
2022-10-11T03:31:25.140Z,3.92
2022-10-11T03:36:20.087Z,3.28
2022-10-11T03:41:12.954Z,3.10
2022-10-11T03:46:09.042Z,3.00
2022-10-11T03:51:03.544Z,3.00
2022-10-11T03:55:57.421Z,2.72
2022-10-11T04:00:50.957Z,3.10
2022-10-11T04:05:45.274Z,3.03
2022-10-11T04:10:38.836Z,2.95
2022-10-11T04:15:32.873Z,3.20
2022-10-11T04:20:25.953Z,3.50
2022-10-11T04:25:19.806Z,3.35
2022-10-11T04:30:14.926Z,3.90
2022-10-11T04:35:08.852Z,2.85
2022-10-11T04:40:02.685Z,3.60
2022-10-11T04:44:56.237Z,3.20
2022-10-11T04:49:49.257Z,3.25
2022-10-11T04:54:43.032Z,3.30
2022-10-11T04:59:36.632Z,2.97
2022-10-11T05:04:30.706Z,3.35
2022-10-11T05:09:24.197Z,3.40
2022-10-11T05:14:17.997Z,3.42
2022-10-11T05:19:12.028Z,2.90
2022-10-11T05:24:06.888Z,3.08
2022-10-11T05:28:59.876Z,3.15
2022-10-11T05:33:53.736Z,3.88
2022-10-11T05:38:48.217Z,5.00
2022-10-11T05:43:42.914Z,4.72
2022-10-11T05:48:36.165Z,5.53
2022-10-11T05:53:30.644Z,7.40
2022-10-11T05:58:24.104Z,13.48
2022-10-11T06:03:17.037Z,16.92
2022-10-11T06:08:11.917Z,17.80
2022-10-11T06:13:06.118Z,17.95
2022-10-11T06:18:03.776Z,18.20
2022-10-11T06:22:57.210Z,19.20
2022-10-11T06:27:50.956Z,19.75
2022-10-11T06:32:44.345Z,19.00
2022-10-11T06:37:38.389Z,20.30
2022-10-11T06:42:31.958Z,20.48
2022-10-11T06:47:25.884Z,21.05
2022-10-11T06:52:19.390Z,20.70
2022-10-11T06:57:12.558Z,19.75
2022-10-11T07:02:06.868Z,17.30
2022-10-11T07:07:04.505Z,19.55
2022-10-11T07:11:59.804Z,19.35
2022-10-11T07:16:53.728Z,18.90
2022-10-11T07:21:47.032Z,18.65
2022-10-11T07:26:40.357Z,18.35
2022-10-11T07:31:34.021Z,18.00
2022-10-11T07:36:27.535Z,15.00
2022-10-11T07:41:21.404Z,16.80
2022-10-11T07:46:15.163Z,15.98
2022-10-11T07:51:13.850Z,17.80
2022-10-11T07:56:09.389Z,14.73
2022-10-11T08:01:03.657Z,16.38
2022-10-11T08:06:05.381Z,15.40
2022-10-11T08:11:00.254Z,13.43
2022-10-11T08:15:54.134Z,14.10
2022-10-11T08:20:47.704Z,12.77
2022-10-11T08:25:44.682Z,12.63
2022-10-11T08:30:38.460Z,13.30
2022-10-11T08:35:32.424Z,13.68
2022-10-11T08:40:26.015Z,13.65
2022-10-11T08:45:31.871Z,13.73
2022-10-11T08:50:25.146Z,14.98
2022-10-11T08:55:38.186Z,15.20
2022-10-11T09:00:34.293Z,15.50
2022-10-11T09:05:33.864Z,14.88
2022-10-11T09:10:46.567Z,14.40
2022-10-11T09:15:51.933Z,14.20
2022-10-11T09:21:14.366Z,14.50
2022-10-11T09:26:24.085Z,12.77
2022-10-11T09:31:18.649Z,13.10
2022-10-11T09:36:40.923Z,14.77
2022-10-11T09:42:05.593Z,13.55
2022-10-11T09:47:03.636Z,14.40
2022-10-11T09:51:59.701Z,16.10
2022-10-11T09:56:53.977Z,15.20
2022-10-11T10:01:47.574Z,15.90
2022-10-11T10:06:41.436Z,15.65
2022-10-11T10:11:38.425Z,14.88
2022-10-11T10:16:41.603Z,13.93
2022-10-11T10:21:38.112Z,14.15
2022-10-11T10:26:36.884Z,14.68
2022-10-11T10:32:09.223Z,15.02
2022-10-11T10:36:59.081Z,14.32
2022-10-11T10:41:52.351Z,15.55
2022-10-11T10:46:47.927Z,15.73
2022-10-11T10:52:06.645Z,15.23
2022-10-11T10:57:04.627Z,14.60
2022-10-11T11:02:28.204Z,13.88
2022-10-11T11:07:49.345Z,13.25
2022-10-11T11:13:03.933Z,12.50
2022-10-11T11:18:42.761Z,13.85
2022-10-11T11:23:43.640Z,13.25
2022-10-11T11:28:54.002Z,14.10
2022-10-11T11:34:06.008Z,11.95
2022-10-11T11:39:02.569Z,11.02
2022-10-11T11:44:18.549Z,11.90
2022-10-11T11:49:18.932Z,12.60
2022-10-11T11:54:49.492Z,11.95
2022-10-11T11:59:43.063Z,11.82
2022-10-11T12:04:39.926Z,11.90
2022-10-11T12:09:35.482Z,12.32
2022-10-11T12:14:40.347Z,14.65
2022-10-11T12:19:34.452Z,14.00
2022-10-11T12:24:57.557Z,14.13
2022-10-11T12:29:52.119Z,14.13
2022-10-11T12:34:46.167Z,14.25
2022-10-11T12:39:55.797Z,13.45
2022-10-11T12:45:13.754Z,14.43
2022-10-11T12:50:28.792Z,13.32
2022-10-11T12:56:03.324Z,11.75
2022-10-11T13:00:56.714Z,12.18
2022-10-11T13:05:53.727Z,11.90
2022-10-11T13:10:49.564Z,10.60
2022-10-11T13:15:43.884Z,11.38
2022-10-11T13:20:41.714Z,10.82
2022-10-11T13:25:42.516Z,9.85
2022-10-11T13:30:37.798Z,8.63
2022-10-11T13:35:36.863Z,8.80
2022-10-11T13:40:31.864Z,7.97
2022-10-11T13:45:28.561Z,8.68
2022-10-11T13:50:32.734Z,7.55
2022-10-11T13:55:36.602Z,9.10
2022-10-11T14:00:37.352Z,8.73
2022-10-11T14:05:30.645Z,8.60
2022-10-11T14:10:24.918Z,8.48
2022-10-11T14:15:24.000Z,7.63
2022-10-11T14:20:35.672Z,7.90
2022-10-11T14:25:29.909Z,7.53
2022-10-11T14:30:26.184Z,7.07
2022-10-11T14:35:26.296Z,7.20
2022-10-11T14:40:22.926Z,8.43
2022-10-11T14:45:16.436Z,8.02
2022-10-11T14:50:33.739Z,7.95
2022-10-11T14:55:27.720Z,7.45
2022-10-11T15:00:23.779Z,7.70
2022-10-11T15:05:18.009Z,6.90
2022-10-11T15:10:19.539Z,6.43
2022-10-11T15:15:16.791Z,5.70
2022-10-11T15:20:19.165Z,6.20
2022-10-11T15:25:16.495Z,6.20
2022-10-11T15:30:28.377Z,5.32
2022-10-11T15:35:23.553Z,6.70
2022-10-11T15:40:25.176Z,5.78
2022-10-11T15:45:21.636Z,6.13
2022-10-11T15:50:34.425Z,5.53
2022-10-11T15:55:28.483Z,5.90
2022-10-11T16:00:22.558Z,4.53
2022-10-11T16:05:16.476Z,4.57
2022-10-11T16:10:11.636Z,4.80
2022-10-11T16:15:05.917Z,4.13
2022-10-11T16:20:00.295Z,3.92
2022-10-11T16:24:54.075Z,4.10
2022-10-11T16:29:47.974Z,4.57
2022-10-11T16:34:42.229Z,3.67
2022-10-11T16:39:35.381Z,4.22
2022-10-11T16:44:29.716Z,3.83
2022-10-11T16:49:26.838Z,3.65
2022-10-11T16:54:20.969Z,3.85
2022-10-11T16:59:14.913Z,3.90
2022-10-11T17:04:09.173Z,6.35
2022-10-11T17:09:03.573Z,8.43
2022-10-11T17:13:56.821Z,8.93
2022-10-11T17:18:50.713Z,8.60
2022-10-11T17:23:44.385Z,8.70
2022-10-11T17:28:37.676Z,8.13
2022-10-11T17:33:32.050Z,8.27
2022-10-11T17:38:28.213Z,7.32
2022-10-11T17:43:22.035Z,6.43
2022-10-11T17:48:16.121Z,5.75
2022-10-11T17:53:10.202Z,5.53
2022-10-11T17:58:04.291Z,5.55
2022-10-11T18:02:58.073Z,5.80
2022-10-11T18:07:54.488Z,5.70
2022-10-11T18:12:47.841Z,5.93
2022-10-11T18:17:41.880Z,6.15
2022-10-11T18:22:35.222Z,6.40
2022-10-11T18:27:30.233Z,7.05
2022-10-11T18:32:23.893Z,8.70
2022-10-11T18:37:18.055Z,8.43
2022-10-11T18:42:11.995Z,8.35
2022-10-11T18:47:06.017Z,7.78
2022-10-11T18:51:59.764Z,8.05
2022-10-11T18:56:54.136Z,7.72
2022-10-11T19:01:48.716Z,6.90
2022-10-11T19:06:45.174Z,7.00
2022-10-11T19:11:42.957Z,6.57
2022-10-11T19:16:40.329Z,7.68
2022-10-11T19:21:34.625Z,7.57
2022-10-11T19:26:32.020Z,7.13
2022-10-11T19:31:26.527Z,6.53
2022-10-11T19:36:19.994Z,6.65
2022-10-11T19:41:15.894Z,6.55
2022-10-11T19:46:11.389Z,5.93
2022-10-11T19:51:08.537Z,6.00
2022-10-11T19:56:06.613Z,6.85
2022-10-11T20:01:14.072Z,6.60
2022-10-11T20:06:08.672Z,6.05
2022-10-11T20:11:10.776Z,6.75
2022-10-11T20:16:27.208Z,5.63
2022-10-11T20:21:22.504Z,6.35
2022-10-11T20:26:21.594Z,5.55
2022-10-11T20:31:16.728Z,5.95
2022-10-11T20:36:13.941Z,5.82
2022-10-11T20:41:09.060Z,5.85
2022-10-11T20:46:07.954Z,5.93
2022-10-11T20:51:01.815Z,6.60
2022-10-11T20:55:56.378Z,7.03
2022-10-11T21:00:50.252Z,7.05
2022-10-11T21:05:44.168Z,7.70
2022-10-11T21:10:37.764Z,8.43
2022-10-11T21:15:32.105Z,9.05
2022-10-11T21:20:26.005Z,8.15
2022-10-11T21:25:20.598Z,8.10
2022-10-11T21:30:12.988Z,8.10
2022-10-11T21:35:06.721Z,7.57
2022-10-11T21:40:00.057Z,6.72
2022-10-11T21:44:52.979Z,7.82
2022-10-11T21:49:50.869Z,7.03
2022-10-11T21:54:45.687Z,7.18
2022-10-11T21:59:39.297Z,6.80
2022-10-11T22:04:33.435Z,6.35
2022-10-11T22:09:29.139Z,6.53
2022-10-11T22:14:22.518Z,6.25
2022-10-11T22:19:15.459Z,6.32
2022-10-11T22:24:10.134Z,6.85
2022-10-11T22:29:03.370Z,6.72
2022-10-11T22:33:59.349Z,5.93
2022-10-11T22:38:52.634Z,6.30
2022-10-11T22:43:46.133Z,6.10
2022-10-11T22:48:39.961Z,6.57
2022-10-11T22:53:33.178Z,6.18
2022-10-11T22:58:26.461Z,6.50
2022-10-11T23:03:20.811Z,6.07
2022-10-11T23:08:14.933Z,6.55
2022-10-11T23:13:07.944Z,5.95
2022-10-11T23:18:00.829Z,5.97
2022-10-11T23:22:55.035Z,5.90
2022-10-11T23:27:48.164Z,5.60
2022-10-11T23:32:41.526Z,6.18
2022-10-11T23:37:36.117Z,5.43
2022-10-11T23:42:30.113Z,5.90
2022-10-11T23:47:24.083Z,5.15
2022-10-11T23:52:17.512Z,5.75
2022-10-11T23:57:10.741Z,5.82
